sensor_id;sensor_type;location;lat;lon;timestamp;P1;durP1;ratioP1;P2;durP2;ratioP2
54171;SDS011;40076;52.354;4.970;2023-08-06T00:00:10;18.10;;;14.23;;
54171;SDS011;40076;52.354;4.970;2023-08-06T00:02:35;18.33;;;14.45;;
54171;SDS011;40076;52.354;4.970;2023-08-06T00:05:01;18.90;;;15.70;;
54171;SDS011;40076;52.354;4.970;2023-08-06T00:07:27;17.95;;;15.48;;
54171;SDS011;40076;52.354;4.970;2023-08-06T00:09:53;19.95;;;15.48;;
54171;SDS011;40076;52.354;4.970;2023-08-06T00:12:19;17.23;;;15.43;;
54171;SDS011;40076;52.354;4.970;2023-08-06T00:14:44;17.13;;;15.32;;
54171;SDS011;40076;52.354;4.970;2023-08-06T00:17:10;17.70;;;15.27;;
54171;SDS011;40076;52.354;4.970;2023-08-06T00:19:35;18.02;;;15.85;;
54171;SDS011;40076;52.354;4.970;2023-08-06T00:22:00;19.33;;;15.77;;
54171;SDS011;40076;52.354;4.970;2023-08-06T00:24:26;16.52;;;14.20;;
54171;SDS011;40076;52.354;4.970;2023-08-06T00:26:52;18.30;;;15.25;;
54171;SDS011;40076;52.354;4.970;2023-08-06T00:29:17;16.42;;;14.55;;
54171;SDS011;40076;52.354;4.970;2023-08-06T00:31:43;14.77;;;13.13;;
54171;SDS011;40076;52.354;4.970;2023-08-06T00:34:08;15.27;;;13.35;;
54171;SDS011;40076;52.354;4.970;2023-08-06T00:36:33;16.15;;;14.43;;
54171;SDS011;40076;52.354;4.970;2023-08-06T00:38:59;17.60;;;14.60;;
54171;SDS011;40076;52.354;4.970;2023-08-06T00:41:24;17.20;;;15.40;;
54171;SDS011;40076;52.354;4.970;2023-08-06T00:43:49;16.80;;;14.13;;
54171;SDS011;40076;52.354;4.970;2023-08-06T00:46:14;17.50;;;15.25;;
54171;SDS011;40076;52.354;4.970;2023-08-06T00:48:40;16.23;;;14.50;;
54171;SDS011;40076;52.354;4.970;2023-08-06T00:51:06;18.45;;;15.30;;
54171;SDS011;40076;52.354;4.970;2023-08-06T00:53:34;17.15;;;14.98;;
54171;SDS011;40076;52.354;4.970;2023-08-06T00:56:00;14.82;;;12.18;;
54171;SDS011;40076;52.354;4.970;2023-08-06T00:58:26;14.60;;;10.93;;
54171;SDS011;40076;52.354;4.970;2023-08-06T01:00:52;10.82;;;9.48;;
54171;SDS011;40076;52.354;4.970;2023-08-06T01:03:17;10.02;;;8.98;;
54171;SDS011;40076;52.354;4.970;2023-08-06T01:05:43;8.95;;;8.05;;
54171;SDS011;40076;52.354;4.970;2023-08-06T01:16:18;16.70;;;12.18;;
54171;SDS011;40076;52.354;4.970;2023-08-06T01:18:46;16.05;;;12.55;;
54171;SDS011;40076;52.354;4.970;2023-08-06T01:21:14;14.40;;;12.10;;
54171;SDS011;40076;52.354;4.970;2023-08-06T01:23:43;15.55;;;12.90;;
54171;SDS011;40076;52.354;4.970;2023-08-06T01:31:38;15.13;;;11.38;;
54171;SDS011;40076;52.354;4.970;2023-08-06T01:34:07;14.95;;;11.45;;
54171;SDS011;40076;52.354;4.970;2023-08-06T01:36:36;14.13;;;11.45;;
54171;SDS011;40076;52.354;4.970;2023-08-06T01:39:01;16.13;;;11.52;;
54171;SDS011;40076;52.354;4.970;2023-08-06T01:41:27;12.55;;;11.27;;
54171;SDS011;40076;52.354;4.970;2023-08-06T01:43:52;13.05;;;11.55;;
54171;SDS011;40076;52.354;4.970;2023-08-06T01:46:17;14.80;;;12.52;;
54171;SDS011;40076;52.354;4.970;2023-08-06T01:48:45;16.05;;;12.38;;
54171;SDS011;40076;52.354;4.970;2023-08-06T01:51:10;13.85;;;11.27;;
54171;SDS011;40076;52.354;4.970;2023-08-06T01:53:35;15.25;;;12.35;;
54171;SDS011;40076;52.354;4.970;2023-08-06T01:56:01;15.98;;;11.80;;
54171;SDS011;40076;52.354;4.970;2023-08-06T01:58:26;15.35;;;12.25;;
54171;SDS011;40076;52.354;4.970;2023-08-06T02:00:52;14.35;;;11.85;;
54171;SDS011;40076;52.354;4.970;2023-08-06T02:03:17;14.63;;;10.45;;
54171;SDS011;40076;52.354;4.970;2023-08-06T02:05:42;13.32;;;11.30;;
54171;SDS011;40076;52.354;4.970;2023-08-06T02:08:08;13.38;;;10.60;;
54171;SDS011;40076;52.354;4.970;2023-08-06T02:10:33;13.45;;;10.63;;
54171;SDS011;40076;52.354;4.970;2023-08-06T02:12:58;15.88;;;10.68;;
54171;SDS011;40076;52.354;4.970;2023-08-06T02:15:24;16.55;;;11.07;;
54171;SDS011;40076;52.354;4.970;2023-08-06T02:17:49;12.48;;;10.65;;
54171;SDS011;40076;52.354;4.970;2023-08-06T02:20:14;13.27;;;10.10;;
54171;SDS011;40076;52.354;4.970;2023-08-06T02:22:40;14.90;;;10.88;;
54171;SDS011;40076;52.354;4.970;2023-08-06T02:25:05;13.50;;;11.43;;
54171;SDS011;40076;52.354;4.970;2023-08-06T02:27:31;13.90;;;10.98;;
54171;SDS011;40076;52.354;4.970;2023-08-06T02:29:56;13.85;;;10.65;;
54171;SDS011;40076;52.354;4.970;2023-08-06T02:32:21;15.98;;;10.95;;
54171;SDS011;40076;52.354;4.970;2023-08-06T02:34:47;14.13;;;11.98;;
54171;SDS011;40076;52.354;4.970;2023-08-06T02:37:12;16.25;;;11.75;;
54171;SDS011;40076;52.354;4.970;2023-08-06T02:39:38;14.40;;;11.98;;
54171;SDS011;40076;52.354;4.970;2023-08-06T02:42:06;15.10;;;11.82;;
54171;SDS011;40076;52.354;4.970;2023-08-06T02:44:32;15.93;;;12.45;;
54171;SDS011;40076;52.354;4.970;2023-08-06T02:46:58;17.15;;;12.43;;
54171;SDS011;40076;52.354;4.970;2023-08-06T02:49:24;14.35;;;12.15;;
54171;SDS011;40076;52.354;4.970;2023-08-06T02:51:49;14.68;;;13.15;;
54171;SDS011;40076;52.354;4.970;2023-08-06T02:54:14;15.02;;;13.07;;
54171;SDS011;40076;52.354;4.970;2023-08-06T02:56:42;16.25;;;12.88;;
54171;SDS011;40076;52.354;4.970;2023-08-06T02:59:09;16.33;;;13.15;;
54171;SDS011;40076;52.354;4.970;2023-08-06T03:01:35;17.00;;;13.90;;
54171;SDS011;40076;52.354;4.970;2023-08-06T03:04:01;15.55;;;13.73;;
54171;SDS011;40076;52.354;4.970;2023-08-06T03:06:26;19.63;;;15.63;;
54171;SDS011;40076;52.354;4.970;2023-08-06T03:08:51;17.92;;;15.35;;
54171;SDS011;40076;52.354;4.970;2023-08-06T03:11:17;21.13;;;16.95;;
54171;SDS011;40076;52.354;4.970;2023-08-06T03:13:42;20.65;;;17.13;;
54171;SDS011;40076;52.354;4.970;2023-08-06T03:16:07;21.02;;;18.83;;
54171;SDS011;40076;52.354;4.970;2023-08-06T03:18:33;21.58;;;17.98;;
54171;SDS011;40076;52.354;4.970;2023-08-06T03:20:58;21.85;;;19.00;;
54171;SDS011;40076;52.354;4.970;2023-08-06T03:23:23;22.40;;;18.92;;
54171;SDS011;40076;52.354;4.970;2023-08-06T03:25:49;23.50;;;21.00;;
54171;SDS011;40076;52.354;4.970;2023-08-06T03:28:14;22.58;;;19.92;;
54171;SDS011;40076;52.354;4.970;2023-08-06T03:30:39;25.23;;;22.50;;
54171;SDS011;40076;52.354;4.970;2023-08-06T03:33:05;28.85;;;23.52;;
54171;SDS011;40076;52.354;4.970;2023-08-06T03:35:30;26.48;;;23.25;;
54171;SDS011;40076;52.354;4.970;2023-08-06T03:37:55;23.75;;;20.77;;
54171;SDS011;40076;52.354;4.970;2023-08-06T03:40:21;26.00;;;22.95;;
54171;SDS011;40076;52.354;4.970;2023-08-06T03:42:46;26.33;;;23.55;;
54171;SDS011;40076;52.354;4.970;2023-08-06T03:45:11;26.13;;;22.63;;
54171;SDS011;40076;52.354;4.970;2023-08-06T03:47:37;26.95;;;23.77;;
54171;SDS011;40076;52.354;4.970;2023-08-06T03:50:02;26.40;;;23.60;;
54171;SDS011;40076;52.354;4.970;2023-08-06T03:52:28;30.45;;;25.38;;
54171;SDS011;40076;52.354;4.970;2023-08-06T03:54:53;28.70;;;24.42;;
54171;SDS011;40076;52.354;4.970;2023-08-06T03:57:18;29.55;;;23.55;;
54171;SDS011;40076;52.354;4.970;2023-08-06T03:59:44;26.42;;;23.58;;
54171;SDS011;40076;52.354;4.970;2023-08-06T04:02:09;28.60;;;24.73;;
54171;SDS011;40076;52.354;4.970;2023-08-06T04:04:34;25.55;;;21.95;;
54171;SDS011;40076;52.354;4.970;2023-08-06T04:07:00;20.42;;;17.50;;
54171;SDS011;40076;52.354;4.970;2023-08-06T04:09:27;14.88;;;13.25;;
54171;SDS011;40076;52.354;4.970;2023-08-06T04:11:53;15.10;;;13.32;;
54171;SDS011;40076;52.354;4.970;2023-08-06T04:14:18;12.38;;;10.90;;
54171;SDS011;40076;52.354;4.970;2023-08-06T04:19:51;8.75;;;7.82;;
54171;SDS011;40076;52.354;4.970;2023-08-06T04:22:35;11.13;;;9.25;;
54171;SDS011;40076;52.354;4.970;2023-08-06T04:25:01;11.15;;;9.95;;
54171;SDS011;40076;52.354;4.970;2023-08-06T04:27:27;15.07;;;12.13;;
54171;SDS011;40076;52.354;4.970;2023-08-06T04:29:52;14.07;;;12.57;;
54171;SDS011;40076;52.354;4.970;2023-08-06T04:32:17;13.93;;;10.93;;
54171;SDS011;40076;52.354;4.970;2023-08-06T04:34:44;13.50;;;9.00;;
54171;SDS011;40076;52.354;4.970;2023-08-06T04:37:09;5.97;;;4.72;;
54171;SDS011;40076;52.354;4.970;2023-08-06T04:39:35;4.65;;;3.80;;
54171;SDS011;40076;52.354;4.970;2023-08-06T04:42:00;6.32;;;3.67;;
54171;SDS011;40076;52.354;4.970;2023-08-06T04:44:25;3.90;;;2.70;;
54171;SDS011;40076;52.354;4.970;2023-08-06T04:46:51;4.07;;;2.97;;
54171;SDS011;40076;52.354;4.970;2023-08-06T04:49:17;3.45;;;2.78;;
54171;SDS011;40076;52.354;4.970;2023-08-06T04:51:43;3.90;;;2.95;;
54171;SDS011;40076;52.354;4.970;2023-08-06T04:54:08;5.07;;;3.20;;
54171;SDS011;40076;52.354;4.970;2023-08-06T04:56:33;5.50;;;2.50;;
54171;SDS011;40076;52.354;4.970;2023-08-06T04:58:59;4.53;;;3.00;;
54171;SDS011;40076;52.354;4.970;2023-08-06T05:01:24;4.25;;;3.08;;
54171;SDS011;40076;52.354;4.970;2023-08-06T05:03:50;4.90;;;3.65;;
54171;SDS011;40076;52.354;4.970;2023-08-06T05:06:15;5.03;;;3.88;;
54171;SDS011;40076;52.354;4.970;2023-08-06T05:08:41;4.70;;;3.65;;
54171;SDS011;40076;52.354;4.970;2023-08-06T05:11:06;5.55;;;3.38;;
54171;SDS011;40076;52.354;4.970;2023-08-06T05:13:31;4.80;;;3.90;;
54171;SDS011;40076;52.354;4.970;2023-08-06T05:15:57;4.70;;;4.00;;
54171;SDS011;40076;52.354;4.970;2023-08-06T05:18:23;6.88;;;4.50;;
54171;SDS011;40076;52.354;4.970;2023-08-06T05:20:48;5.00;;;4.15;;
54171;SDS011;40076;52.354;4.970;2023-08-06T05:23:13;4.63;;;3.55;;
54171;SDS011;40076;52.354;4.970;2023-08-06T05:25:39;5.97;;;4.80;;
54171;SDS011;40076;52.354;4.970;2023-08-06T05:28:05;7.60;;;5.60;;
54171;SDS011;40076;52.354;4.970;2023-08-06T05:30:30;9.10;;;6.40;;
54171;SDS011;40076;52.354;4.970;2023-08-06T05:32:56;6.82;;;5.80;;
54171;SDS011;40076;52.354;4.970;2023-08-06T05:35:21;7.85;;;6.15;;
54171;SDS011;40076;52.354;4.970;2023-08-06T05:37:47;6.80;;;5.80;;
54171;SDS011;40076;52.354;4.970;2023-08-06T05:40:13;7.03;;;5.85;;
54171;SDS011;40076;52.354;4.970;2023-08-06T05:42:39;6.60;;;5.88;;
54171;SDS011;40076;52.354;4.970;2023-08-06T05:45:06;7.05;;;5.75;;
54171;SDS011;40076;52.354;4.970;2023-08-06T05:47:31;11.77;;;7.05;;
54171;SDS011;40076;52.354;4.970;2023-08-06T05:49:59;9.15;;;7.50;;
54171;SDS011;40076;52.354;4.970;2023-08-06T05:52:24;10.77;;;7.78;;
54171;SDS011;40076;52.354;4.970;2023-08-06T05:54:58;10.55;;;7.53;;
54171;SDS011;40076;52.354;4.970;2023-08-06T05:57:23;10.15;;;7.53;;
54171;SDS011;40076;52.354;4.970;2023-08-06T05:59:48;10.05;;;6.97;;
54171;SDS011;40076;52.354;4.970;2023-08-06T06:02:14;8.02;;;7.22;;
54171;SDS011;40076;52.354;4.970;2023-08-06T06:04:40;9.63;;;7.22;;
54171;SDS011;40076;52.354;4.970;2023-08-06T06:07:05;7.47;;;6.60;;
54171;SDS011;40076;52.354;4.970;2023-08-06T06:09:31;7.43;;;6.45;;
54171;SDS011;40076;52.354;4.970;2023-08-06T06:11:56;9.02;;;6.85;;
54171;SDS011;40076;52.354;4.970;2023-08-06T06:14:21;8.25;;;6.95;;
54171;SDS011;40076;52.354;4.970;2023-08-06T06:19:25;10.38;;;7.70;;
54171;SDS011;40076;52.354;4.970;2023-08-06T06:22:01;11.10;;;8.40;;
54171;SDS011;40076;52.354;4.970;2023-08-06T06:24:26;9.95;;;7.43;;
54171;SDS011;40076;52.354;4.970;2023-08-06T06:26:51;11.13;;;7.47;;
54171;SDS011;40076;52.354;4.970;2023-08-06T06:29:17;11.18;;;7.07;;
54171;SDS011;40076;52.354;4.970;2023-08-06T06:31:50;11.10;;;8.45;;
54171;SDS011;40076;52.354;4.970;2023-08-06T06:34:15;10.00;;;7.20;;
54171;SDS011;40076;52.354;4.970;2023-08-06T06:36:45;11.00;;;7.18;;
54171;SDS011;40076;52.354;4.970;2023-08-06T06:39:10;8.77;;;7.13;;
54171;SDS011;40076;52.354;4.970;2023-08-06T06:41:35;9.43;;;6.63;;
54171;SDS011;40076;52.354;4.970;2023-08-06T06:44:01;9.55;;;6.22;;
54171;SDS011;40076;52.354;4.970;2023-08-06T06:46:26;10.07;;;5.85;;
54171;SDS011;40076;52.354;4.970;2023-08-06T06:48:51;8.48;;;4.93;;
54171;SDS011;40076;52.354;4.970;2023-08-06T06:51:17;7.82;;;4.32;;
54171;SDS011;40076;52.354;4.970;2023-08-06T06:53:42;7.60;;;4.35;;
54171;SDS011;40076;52.354;4.970;2023-08-06T06:56:07;8.10;;;4.30;;
54171;SDS011;40076;52.354;4.970;2023-08-06T06:58:33;7.72;;;4.65;;
54171;SDS011;40076;52.354;4.970;2023-08-06T07:00:58;6.40;;;4.07;;
54171;SDS011;40076;52.354;4.970;2023-08-06T07:03:24;7.60;;;4.15;;
54171;SDS011;40076;52.354;4.970;2023-08-06T07:05:50;6.97;;;3.97;;
54171;SDS011;40076;52.354;4.970;2023-08-06T07:08:15;5.60;;;3.70;;
54171;SDS011;40076;52.354;4.970;2023-08-06T07:10:59;6.20;;;3.85;;
54171;SDS011;40076;52.354;4.970;2023-08-06T07:13:31;6.07;;;3.90;;
54171;SDS011;40076;52.354;4.970;2023-08-06T07:15:57;6.53;;;4.07;;
54171;SDS011;40076;52.354;4.970;2023-08-06T07:18:23;8.32;;;4.35;;
54171;SDS011;40076;52.354;4.970;2023-08-06T07:20:49;6.50;;;4.47;;
54171;SDS011;40076;52.354;4.970;2023-08-06T07:23:16;8.00;;;4.47;;
54171;SDS011;40076;52.354;4.970;2023-08-06T07:25:42;6.65;;;3.78;;
54171;SDS011;40076;52.354;4.970;2023-08-06T07:28:07;6.50;;;3.95;;
54171;SDS011;40076;52.354;4.970;2023-08-06T07:30:33;6.20;;;4.15;;
54171;SDS011;40076;52.354;4.970;2023-08-06T07:32:58;6.07;;;4.50;;
54171;SDS011;40076;52.354;4.970;2023-08-06T07:35:24;6.53;;;4.90;;
54171;SDS011;40076;52.354;4.970;2023-08-06T07:37:49;7.90;;;5.25;;
54171;SDS011;40076;52.354;4.970;2023-08-06T07:40:14;8.50;;;6.00;;
54171;SDS011;40076;52.354;4.970;2023-08-06T07:42:41;9.55;;;6.45;;
54171;SDS011;40076;52.354;4.970;2023-08-06T07:45:07;9.80;;;7.18;;
54171;SDS011;40076;52.354;4.970;2023-08-06T07:47:32;10.52;;;6.57;;
54171;SDS011;40076;52.354;4.970;2023-08-06T07:49:58;9.23;;;6.90;;
54171;SDS011;40076;52.354;4.970;2023-08-06T07:52:24;11.15;;;7.55;;
54171;SDS011;40076;52.354;4.970;2023-08-06T07:54:50;9.13;;;7.32;;
54171;SDS011;40076;52.354;4.970;2023-08-06T07:57:15;9.48;;;7.22;;
54171;SDS011;40076;52.354;4.970;2023-08-06T07:59:40;13.25;;;7.85;;
54171;SDS011;40076;52.354;4.970;2023-08-06T08:02:06;9.23;;;7.10;;
54171;SDS011;40076;52.354;4.970;2023-08-06T08:04:31;10.05;;;7.75;;
54171;SDS011;40076;52.354;4.970;2023-08-06T08:06:57;11.52;;;8.15;;
54171;SDS011;40076;52.354;4.970;2023-08-06T08:09:22;9.57;;;7.90;;
54171;SDS011;40076;52.354;4.970;2023-08-06T08:11:50;13.32;;;8.43;;
54171;SDS011;40076;52.354;4.970;2023-08-06T08:14:19;10.85;;;8.32;;
54171;SDS011;40076;52.354;4.970;2023-08-06T08:16:46;12.57;;;8.13;;
54171;SDS011;40076;52.354;4.970;2023-08-06T08:19:12;14.50;;;8.38;;
54171;SDS011;40076;52.354;4.970;2023-08-06T08:21:44;10.77;;;8.25;;
54171;SDS011;40076;52.354;4.970;2023-08-06T08:24:13;12.60;;;8.75;;
54171;SDS011;40076;52.354;4.970;2023-08-06T08:26:38;13.18;;;8.93;;
54171;SDS011;40076;52.354;4.970;2023-08-06T08:29:03;12.95;;;9.00;;
54171;SDS011;40076;52.354;4.970;2023-08-06T08:31:29;10.30;;;7.60;;
54171;SDS011;40076;52.354;4.970;2023-08-06T08:33:54;12.43;;;8.95;;
54171;SDS011;40076;52.354;4.970;2023-08-06T08:36:20;10.82;;;8.77;;
54171;SDS011;40076;52.354;4.970;2023-08-06T08:38:46;13.10;;;8.27;;
54171;SDS011;40076;52.354;4.970;2023-08-06T08:41:11;11.32;;;8.18;;
54171;SDS011;40076;52.354;4.970;2023-08-06T08:43:36;11.40;;;8.50;;
54171;SDS011;40076;52.354;4.970;2023-08-06T08:46:03;10.65;;;8.02;;
54171;SDS011;40076;52.354;4.970;2023-08-06T08:48:30;11.98;;;8.40;;
54171;SDS011;40076;52.354;4.970;2023-08-06T08:50:56;12.43;;;8.90;;
54171;SDS011;40076;52.354;4.970;2023-08-06T08:53:25;11.68;;;9.45;;
54171;SDS011;40076;52.354;4.970;2023-08-06T08:55:51;13.60;;;8.77;;
54171;SDS011;40076;52.354;4.970;2023-08-06T08:58:18;12.77;;;9.13;;
54171;SDS011;40076;52.354;4.970;2023-08-06T09:00:45;14.23;;;9.65;;
54171;SDS011;40076;52.354;4.970;2023-08-06T09:03:13;11.45;;;8.10;;
54171;SDS011;40076;52.354;4.970;2023-08-06T09:09:08;9.90;;;6.45;;
54171;SDS011;40076;52.354;4.970;2023-08-06T09:11:47;10.20;;;6.68;;
54171;SDS011;40076;52.354;4.970;2023-08-06T09:17:03;12.93;;;6.35;;
54171;SDS011;40076;52.354;4.970;2023-08-06T09:19:32;11.25;;;5.70;;
54171;SDS011;40076;52.354;4.970;2023-08-06T09:22:01;11.57;;;5.70;;
54171;SDS011;40076;52.354;4.970;2023-08-06T09:24:27;10.95;;;5.65;;
54171;SDS011;40076;52.354;4.970;2023-08-06T09:27:03;7.63;;;4.30;;
54171;SDS011;40076;52.354;4.970;2023-08-06T09:29:28;9.95;;;4.80;;
54171;SDS011;40076;52.354;4.970;2023-08-06T09:32:01;9.55;;;4.75;;
54171;SDS011;40076;52.354;4.970;2023-08-06T09:34:27;9.25;;;4.82;;
54171;SDS011;40076;52.354;4.970;2023-08-06T09:36:53;9.93;;;4.93;;
54171;SDS011;40076;52.354;4.970;2023-08-06T09:39:20;10.68;;;5.47;;
54171;SDS011;40076;52.354;4.970;2023-08-06T09:41:49;9.55;;;5.30;;
54171;SDS011;40076;52.354;4.970;2023-08-06T09:44:21;9.88;;;4.97;;
54171;SDS011;40076;52.354;4.970;2023-08-06T09:46:49;9.20;;;4.63;;
54171;SDS011;40076;52.354;4.970;2023-08-06T09:49:21;12.38;;;5.80;;
54171;SDS011;40076;52.354;4.970;2023-08-06T09:51:50;10.85;;;5.20;;
54171;SDS011;40076;52.354;4.970;2023-08-06T09:54:18;9.10;;;4.43;;
54171;SDS011;40076;52.354;4.970;2023-08-06T09:56:44;7.68;;;4.53;;
54171;SDS011;40076;52.354;4.970;2023-08-06T09:59:12;10.75;;;5.28;;
54171;SDS011;40076;52.354;4.970;2023-08-06T10:01:38;10.65;;;4.20;;
54171;SDS011;40076;52.354;4.970;2023-08-06T10:04:04;8.38;;;3.95;;
54171;SDS011;40076;52.354;4.970;2023-08-06T10:06:35;8.55;;;3.63;;
54171;SDS011;40076;52.354;4.970;2023-08-06T10:09:07;9.07;;;3.63;;
54171;SDS011;40076;52.354;4.970;2023-08-06T10:11:34;8.20;;;3.60;;
54171;SDS011;40076;52.354;4.970;2023-08-06T10:14:03;6.75;;;3.55;;
54171;SDS011;40076;52.354;4.970;2023-08-06T10:16:33;9.10;;;3.75;;
54171;SDS011;40076;52.354;4.970;2023-08-06T10:19:00;6.05;;;3.10;;
54171;SDS011;40076;52.354;4.970;2023-08-06T10:21:27;8.75;;;3.10;;
54171;SDS011;40076;52.354;4.970;2023-08-06T10:23:55;5.47;;;2.15;;
54171;SDS011;40076;52.354;4.970;2023-08-06T10:26:24;4.60;;;1.90;;
54171;SDS011;40076;52.354;4.970;2023-08-06T10:28:50;5.53;;;2.42;;
54171;SDS011;40076;52.354;4.970;2023-08-06T10:31:17;8.57;;;2.47;;
54171;SDS011;40076;52.354;4.970;2023-08-06T10:33:44;5.25;;;2.00;;
54171;SDS011;40076;52.354;4.970;2023-08-06T10:36:10;6.43;;;2.00;;
54171;SDS011;40076;52.354;4.970;2023-08-06T10:38:49;5.47;;;2.20;;
54171;SDS011;40076;52.354;4.970;2023-08-06T10:41:23;6.15;;;2.28;;
54171;SDS011;40076;52.354;4.970;2023-08-06T10:44:06;8.13;;;2.70;;
54171;SDS011;40076;52.354;4.970;2023-08-06T10:46:33;9.98;;;3.25;;
54171;SDS011;40076;52.354;4.970;2023-08-06T10:48:58;8.45;;;3.10;;
54171;SDS011;40076;52.354;4.970;2023-08-06T10:51:24;6.43;;;2.75;;
54171;SDS011;40076;52.354;4.970;2023-08-06T10:53:50;6.07;;;2.50;;
54171;SDS011;40076;52.354;4.970;2023-08-06T10:56:17;6.60;;;2.33;;
54171;SDS011;40076;52.354;4.970;2023-08-06T10:58:44;10.52;;;2.97;;
54171;SDS011;40076;52.354;4.970;2023-08-06T11:01:11;6.65;;;2.22;;
54171;SDS011;40076;52.354;4.970;2023-08-06T11:03:50;3.95;;;1.65;;
54171;SDS011;40076;52.354;4.970;2023-08-06T11:06:18;6.35;;;2.13;;
54171;SDS011;40076;52.354;4.970;2023-08-06T11:09:01;4.32;;;1.88;;
54171;SDS011;40076;52.354;4.970;2023-08-06T11:11:27;4.82;;;1.75;;
54171;SDS011;40076;52.354;4.970;2023-08-06T11:17:14;5.68;;;2.20;;
54171;SDS011;40076;52.354;4.970;2023-08-06T11:19:40;7.78;;;1.98;;
54171;SDS011;40076;52.354;4.970;2023-08-06T11:22:06;3.67;;;1.70;;
54171;SDS011;40076;52.354;4.970;2023-08-06T11:24:31;5.20;;;2.50;;
54171;SDS011;40076;52.354;4.970;2023-08-06T11:26:57;5.50;;;1.80;;
54171;SDS011;40076;52.354;4.970;2023-08-06T11:29:22;4.40;;;1.60;;
54171;SDS011;40076;52.354;4.970;2023-08-06T11:31:48;5.75;;;2.22;;
54171;SDS011;40076;52.354;4.970;2023-08-06T11:34:13;5.95;;;1.75;;
54171;SDS011;40076;52.354;4.970;2023-08-06T11:36:40;4.53;;;1.55;;
54171;SDS011;40076;52.354;4.970;2023-08-06T11:39:06;4.53;;;1.70;;
54171;SDS011;40076;52.354;4.970;2023-08-06T11:41:32;5.35;;;2.33;;
54171;SDS011;40076;52.354;4.970;2023-08-06T11:43:58;4.53;;;1.95;;
54171;SDS011;40076;52.354;4.970;2023-08-06T11:46:23;5.38;;;2.00;;
54171;SDS011;40076;52.354;4.970;2023-08-06T11:48:50;8.30;;;2.47;;
54171;SDS011;40076;52.354;4.970;2023-08-06T11:51:22;4.63;;;2.08;;
54171;SDS011;40076;52.354;4.970;2023-08-06T11:53:49;5.50;;;2.10;;
54171;SDS011;40076;52.354;4.970;2023-08-06T11:56:15;5.65;;;2.20;;
54171;SDS011;40076;52.354;4.970;2023-08-06T11:58:41;5.95;;;2.30;;
54171;SDS011;40076;52.354;4.970;2023-08-06T12:01:07;10.55;;;2.60;;
54171;SDS011;40076;52.354;4.970;2023-08-06T12:03:38;4.13;;;2.05;;
54171;SDS011;40076;52.354;4.970;2023-08-06T12:06:04;6.55;;;2.15;;
54171;SDS011;40076;52.354;4.970;2023-08-06T12:08:32;4.95;;;1.77;;
54171;SDS011;40076;52.354;4.970;2023-08-06T12:10:57;4.00;;;2.30;;
54171;SDS011;40076;52.354;4.970;2023-08-06T12:13:23;4.60;;;1.90;;
54171;SDS011;40076;52.354;4.970;2023-08-06T12:15:48;4.32;;;2.20;;
54171;SDS011;40076;52.354;4.970;2023-08-06T12:18:14;8.02;;;1.90;;
54171;SDS011;40076;52.354;4.970;2023-08-06T12:20:40;4.32;;;1.70;;
54171;SDS011;40076;52.354;4.970;2023-08-06T12:23:05;6.30;;;2.35;;
54171;SDS011;40076;52.354;4.970;2023-08-06T12:25:31;4.20;;;1.83;;
54171;SDS011;40076;52.354;4.970;2023-08-06T12:27:56;5.13;;;1.80;;
54171;SDS011;40076;52.354;4.970;2023-08-06T12:30:22;4.20;;;1.50;;
54171;SDS011;40076;52.354;4.970;2023-08-06T12:32:48;4.47;;;1.58;;
54171;SDS011;40076;52.354;4.970;2023-08-06T12:35:13;3.42;;;1.70;;
54171;SDS011;40076;52.354;4.970;2023-08-06T12:37:39;5.40;;;1.70;;
54171;SDS011;40076;52.354;4.970;2023-08-06T12:40:04;2.63;;;1.45;;
54171;SDS011;40076;52.354;4.970;2023-08-06T12:42:31;5.70;;;2.03;;
54171;SDS011;40076;52.354;4.970;2023-08-06T12:44:56;4.05;;;1.83;;
54171;SDS011;40076;52.354;4.970;2023-08-06T12:47:21;4.80;;;1.73;;
54171;SDS011;40076;52.354;4.970;2023-08-06T12:49:47;3.85;;;1.58;;
54171;SDS011;40076;52.354;4.970;2023-08-06T12:52:12;4.15;;;1.85;;
54171;SDS011;40076;52.354;4.970;2023-08-06T12:54:40;4.50;;;1.60;;
54171;SDS011;40076;52.354;4.970;2023-08-06T12:57:05;4.50;;;1.58;;
54171;SDS011;40076;52.354;4.970;2023-08-06T12:59:31;2.97;;;1.70;;
54171;SDS011;40076;52.354;4.970;2023-08-06T13:02:01;3.80;;;1.50;;
54171;SDS011;40076;52.354;4.970;2023-08-06T13:04:27;4.22;;;1.40;;
54171;SDS011;40076;52.354;4.970;2023-08-06T13:06:53;4.75;;;1.50;;
54171;SDS011;40076;52.354;4.970;2023-08-06T13:09:18;2.65;;;1.00;;
54171;SDS011;40076;52.354;4.970;2023-08-06T13:11:43;4.13;;;1.70;;
54171;SDS011;40076;52.354;4.970;2023-08-06T13:14:11;4.18;;;1.90;;
54171;SDS011;40076;52.354;4.970;2023-08-06T13:16:40;3.30;;;1.55;;
54171;SDS011;40076;52.354;4.970;2023-08-06T13:19:06;3.95;;;2.05;;
54171;SDS011;40076;52.354;4.970;2023-08-06T13:21:33;5.90;;;1.70;;
54171;SDS011;40076;52.354;4.970;2023-08-06T13:24:01;5.22;;;1.33;;
54171;SDS011;40076;52.354;4.970;2023-08-06T13:26:28;4.22;;;1.70;;
54171;SDS011;40076;52.354;4.970;2023-08-06T13:28:57;4.30;;;1.95;;
54171;SDS011;40076;52.354;4.970;2023-08-06T13:31:23;3.88;;;1.48;;
54171;SDS011;40076;52.354;4.970;2023-08-06T13:33:48;4.90;;;1.70;;
54171;SDS011;40076;52.354;4.970;2023-08-06T13:36:15;5.78;;;1.70;;
54171;SDS011;40076;52.354;4.970;2023-08-06T13:38:40;3.70;;;1.80;;
54171;SDS011;40076;52.354;4.970;2023-08-06T13:41:06;5.32;;;1.80;;
54171;SDS011;40076;52.354;4.970;2023-08-06T13:43:31;4.63;;;1.70;;
54171;SDS011;40076;52.354;4.970;2023-08-06T13:45:57;6.10;;;1.50;;
54171;SDS011;40076;52.354;4.970;2023-08-06T13:48:22;3.40;;;1.38;;
54171;SDS011;40076;52.354;4.970;2023-08-06T13:50:48;3.38;;;1.48;;
54171;SDS011;40076;52.354;4.970;2023-08-06T13:53:13;4.45;;;1.90;;
54171;SDS011;40076;52.354;4.970;2023-08-06T13:55:38;2.85;;;1.40;;
54171;SDS011;40076;52.354;4.970;2023-08-06T13:58:04;4.55;;;1.70;;
54171;SDS011;40076;52.354;4.970;2023-08-06T14:00:29;4.15;;;1.58;;
54171;SDS011;40076;52.354;4.970;2023-08-06T14:02:55;2.58;;;1.30;;
54171;SDS011;40076;52.354;4.970;2023-08-06T14:05:20;4.75;;;1.20;;
54171;SDS011;40076;52.354;4.970;2023-08-06T14:07:46;3.08;;;1.20;;
54171;SDS011;40076;52.354;4.970;2023-08-06T14:10:13;2.67;;;1.10;;
54171;SDS011;40076;52.354;4.970;2023-08-06T14:12:39;3.75;;;1.35;;
54171;SDS011;40076;52.354;4.970;2023-08-06T14:15:05;3.45;;;1.23;;
54171;SDS011;40076;52.354;4.970;2023-08-06T14:17:31;4.80;;;1.95;;
54171;SDS011;40076;52.354;4.970;2023-08-06T14:19:56;5.28;;;1.10;;
54171;SDS011;40076;52.354;4.970;2023-08-06T14:22:22;5.25;;;1.10;;
54171;SDS011;40076;52.354;4.970;2023-08-06T14:24:47;6.78;;;1.27;;
54171;SDS011;40076;52.354;4.970;2023-08-06T14:27:13;7.18;;;2.03;;
54171;SDS011;40076;52.354;4.970;2023-08-06T14:29:38;4.35;;;1.02;;
54171;SDS011;40076;52.354;4.970;2023-08-06T14:32:04;7.78;;;1.23;;
54171;SDS011;40076;52.354;4.970;2023-08-06T14:34:29;7.10;;;0.93;;
54171;SDS011;40076;52.354;4.970;2023-08-06T14:36:55;8.02;;;1.45;;
54171;SDS011;40076;52.354;4.970;2023-08-06T14:39:20;7.75;;;1.38;;
54171;SDS011;40076;52.354;4.970;2023-08-06T14:41:46;9.50;;;1.17;;
54171;SDS011;40076;52.354;4.970;2023-08-06T14:44:12;8.25;;;1.27;;
54171;SDS011;40076;52.354;4.970;2023-08-06T14:46:37;14.90;;;1.30;;
54171;SDS011;40076;52.354;4.970;2023-08-06T14:49:02;9.85;;;1.67;;
54171;SDS011;40076;52.354;4.970;2023-08-06T14:51:28;9.65;;;1.38;;
54171;SDS011;40076;52.354;4.970;2023-08-06T14:53:53;9.73;;;1.33;;
54171;SDS011;40076;52.354;4.970;2023-08-06T14:56:19;12.15;;;1.90;;
54171;SDS011;40076;52.354;4.970;2023-08-06T14:58:44;8.93;;;1.50;;
54171;SDS011;40076;52.354;4.970;2023-08-06T15:01:09;7.25;;;1.08;;